FABL/BFN METAR and TAF weather

Enter ICAO airport designator
Station Type Date Time Source
FABL METAR 2018/04/23 11:00 UTC NOAA

FABL 231100Z 32007KT 270V010 CAVOK 24/07 Q1022 NOSIG


Station Type Date Time Source
FABL Decoded METAR 2018/04/23 11:00 UTC NOAA

Bloemfontein, Bloemfontein Airport, South Africa (FABL) 29-06S 026-18E 1400M
Apr 23, 2018 - 07:00 AM EDT / 2018.04.23 1100 UTC
Wind: from the NW (320 degrees) at 8 MPH (7 KT) (direction variable):0
Visibility: greater than 7 mile(s):0
Temperature: 75 F (24 C)
Dew Point: 44 F (7 C)
Relative Humidity: 33%
Pressure (altimeter): 30.18 in. Hg (1022 hPa)
ob: FABL 231100Z 32007KT 270V010 CAVOK 24/07 Q1022 NOSIG
cycle: 11

Station Type Date Time Source
FABL TAF 2018/04/23 12:36 UTC NOAA

TAF TAF FABL 231000Z 2312/2412 34010KT CAVOK TX24/2313Z TN07/2404Z


Example: see airport list